sensor_id;sensor_type;location;lat;lon;timestamp;P1;durP1;ratioP1;P2;durP2;ratioP2
74213;SDS011;62576;55.694;37.494;2023-04-25T00:01:13;14.18;;;5.90;;
74213;SDS011;62576;55.694;37.494;2023-04-25T00:03:43;15.85;;;6.00;;
74213;SDS011;62576;55.694;37.494;2023-04-25T00:06:13;14.75;;;5.60;;
74213;SDS011;62576;55.694;37.494;2023-04-25T00:08:44;9.13;;;5.68;;
74213;SDS011;62576;55.694;37.494;2023-04-25T00:11:15;12.32;;;5.53;;
74213;SDS011;62576;55.694;37.494;2023-04-25T00:13:45;14.82;;;6.13;;
74213;SDS011;62576;55.694;37.494;2023-04-25T00:16:16;14.52;;;6.00;;
74213;SDS011;62576;55.694;37.494;2023-04-25T00:18:46;11.85;;;5.63;;
74213;SDS011;62576;55.694;37.494;2023-04-25T00:21:19;12.63;;;5.40;;
74213;SDS011;62576;55.694;37.494;2023-04-25T00:23:50;23.25;;;9.73;;
74213;SDS011;62576;55.694;37.494;2023-04-25T00:26:21;14.35;;;5.80;;
74213;SDS011;62576;55.694;37.494;2023-04-25T00:28:51;14.05;;;5.30;;
74213;SDS011;62576;55.694;37.494;2023-04-25T00:31:21;11.55;;;5.20;;
74213;SDS011;62576;55.694;37.494;2023-04-25T00:33:54;13.27;;;5.72;;
74213;SDS011;62576;55.694;37.494;2023-04-25T00:36:24;13.90;;;5.50;;
74213;SDS011;62576;55.694;37.494;2023-04-25T00:38:55;11.43;;;5.50;;
74213;SDS011;62576;55.694;37.494;2023-04-25T00:41:27;13.52;;;5.30;;
74213;SDS011;62576;55.694;37.494;2023-04-25T00:43:58;9.93;;;5.45;;
74213;SDS011;62576;55.694;37.494;2023-04-25T00:46:29;14.35;;;5.95;;
74213;SDS011;62576;55.694;37.494;2023-04-25T00:49:00;14.00;;;5.85;;
74213;SDS011;62576;55.694;37.494;2023-04-25T00:51:30;11.85;;;5.90;;
74213;SDS011;62576;55.694;37.494;2023-04-25T00:54:02;13.82;;;5.63;;
74213;SDS011;62576;55.694;37.494;2023-04-25T00:56:33;13.02;;;5.82;;
74213;SDS011;62576;55.694;37.494;2023-04-25T00:59:04;13.77;;;6.18;;
74213;SDS011;62576;55.694;37.494;2023-04-25T01:01:34;15.05;;;5.65;;
74213;SDS011;62576;55.694;37.494;2023-04-25T01:04:06;13.32;;;5.78;;
74213;SDS011;62576;55.694;37.494;2023-04-25T01:06:36;14.20;;;6.15;;
74213;SDS011;62576;55.694;37.494;2023-04-25T01:09:06;18.80;;;5.70;;
74213;SDS011;62576;55.694;37.494;2023-04-25T01:11:39;11.13;;;5.63;;
74213;SDS011;62576;55.694;37.494;2023-04-25T01:14:09;13.52;;;5.68;;
74213;SDS011;62576;55.694;37.494;2023-04-25T01:16:39;9.90;;;5.30;;
74213;SDS011;62576;55.694;37.494;2023-04-25T01:19:09;10.75;;;5.35;;
74213;SDS011;62576;55.694;37.494;2023-04-25T01:21:42;13.27;;;6.10;;
74213;SDS011;62576;55.694;37.494;2023-04-25T01:24:12;13.43;;;5.53;;
74213;SDS011;62576;55.694;37.494;2023-04-25T01:26:43;12.52;;;5.38;;
74213;SDS011;62576;55.694;37.494;2023-04-25T01:29:17;11.65;;;5.75;;
74213;SDS011;62576;55.694;37.494;2023-04-25T01:31:48;12.18;;;5.72;;
74213;SDS011;62576;55.694;37.494;2023-04-25T01:34:19;13.80;;;5.68;;
74213;SDS011;62576;55.694;37.494;2023-04-25T01:36:51;11.57;;;5.95;;
74213;SDS011;62576;55.694;37.494;2023-04-25T01:39:22;14.27;;;6.10;;
74213;SDS011;62576;55.694;37.494;2023-04-25T01:41:54;9.77;;;5.82;;
74213;SDS011;62576;55.694;37.494;2023-04-25T01:44:24;12.07;;;5.93;;
74213;SDS011;62576;55.694;37.494;2023-04-25T01:46:54;12.05;;;5.85;;
74213;SDS011;62576;55.694;37.494;2023-04-25T01:49:24;11.45;;;6.05;;
74213;SDS011;62576;55.694;37.494;2023-04-25T01:51:55;12.55;;;5.93;;
74213;SDS011;62576;55.694;37.494;2023-04-25T01:54:25;14.15;;;5.47;;
74213;SDS011;62576;55.694;37.494;2023-04-25T01:56:57;12.38;;;5.95;;
74213;SDS011;62576;55.694;37.494;2023-04-25T01:59:27;13.07;;;5.95;;
74213;SDS011;62576;55.694;37.494;2023-04-25T02:01:57;14.65;;;5.88;;
74213;SDS011;62576;55.694;37.494;2023-04-25T02:04:32;18.63;;;6.15;;
74213;SDS011;62576;55.694;37.494;2023-04-25T02:07:03;14.88;;;5.88;;
74213;SDS011;62576;55.694;37.494;2023-04-25T02:09:33;14.07;;;6.00;;
74213;SDS011;62576;55.694;37.494;2023-04-25T02:12:03;14.73;;;5.80;;
74213;SDS011;62576;55.694;37.494;2023-04-25T02:14:34;15.52;;;6.55;;
74213;SDS011;62576;55.694;37.494;2023-04-25T02:17:04;14.00;;;5.60;;
74213;SDS011;62576;55.694;37.494;2023-04-25T02:19:34;14.25;;;6.63;;
74213;SDS011;62576;55.694;37.494;2023-04-25T02:22:06;10.93;;;5.93;;
74213;SDS011;62576;55.694;37.494;2023-04-25T02:24:36;15.13;;;6.20;;
74213;SDS011;62576;55.694;37.494;2023-04-25T02:27:06;12.40;;;6.03;;
74213;SDS011;62576;55.694;37.494;2023-04-25T02:29:36;11.23;;;5.88;;
74213;SDS011;62576;55.694;37.494;2023-04-25T02:32:06;13.05;;;5.95;;
74213;SDS011;62576;55.694;37.494;2023-04-25T02:34:36;12.30;;;6.43;;
74213;SDS011;62576;55.694;37.494;2023-04-25T02:37:08;14.70;;;5.57;;
74213;SDS011;62576;55.694;37.494;2023-04-25T02:39:38;16.15;;;6.18;;
74213;SDS011;62576;55.694;37.494;2023-04-25T02:42:07;15.73;;;6.25;;
74213;SDS011;62576;55.694;37.494;2023-04-25T02:44:37;14.68;;;5.95;;
74213;SDS011;62576;55.694;37.494;2023-04-25T02:47:07;14.32;;;5.40;;
74213;SDS011;62576;55.694;37.494;2023-04-25T02:49:38;13.10;;;6.70;;
74213;SDS011;62576;55.694;37.494;2023-04-25T02:52:09;9.68;;;5.75;;
74213;SDS011;62576;55.694;37.494;2023-04-25T02:54:39;13.65;;;5.30;;
74213;SDS011;62576;55.694;37.494;2023-04-25T02:57:10;11.35;;;5.43;;
74213;SDS011;62576;55.694;37.494;2023-04-25T02:59:40;13.23;;;6.20;;
74213;SDS011;62576;55.694;37.494;2023-04-25T03:02:10;15.75;;;6.70;;
74213;SDS011;62576;55.694;37.494;2023-04-25T03:04:40;13.00;;;6.70;;
74213;SDS011;62576;55.694;37.494;2023-04-25T03:07:11;12.38;;;5.78;;
74213;SDS011;62576;55.694;37.494;2023-04-25T03:09:41;18.83;;;7.45;;
74213;SDS011;62576;55.694;37.494;2023-04-25T03:12:11;16.48;;;6.68;;
74213;SDS011;62576;55.694;37.494;2023-04-25T03:14:41;10.02;;;5.22;;
74213;SDS011;62576;55.694;37.494;2023-04-25T03:17:11;11.43;;;5.68;;
74213;SDS011;62576;55.694;37.494;2023-04-25T03:19:44;15.95;;;5.55;;
74213;SDS011;62576;55.694;37.494;2023-04-25T03:24:46;10.05;;;5.50;;
74213;SDS011;62576;55.694;37.494;2023-04-25T03:27:16;19.63;;;6.93;;
74213;SDS011;62576;55.694;37.494;2023-04-25T03:29:46;14.07;;;5.88;;
74213;SDS011;62576;55.694;37.494;2023-04-25T03:32:16;12.38;;;5.85;;
74213;SDS011;62576;55.694;37.494;2023-04-25T03:34:43;11.43;;;5.93;;
74213;SDS011;62576;55.694;37.494;2023-04-25T03:37:12;10.35;;;6.05;;
74213;SDS011;62576;55.694;37.494;2023-04-25T03:39:43;15.48;;;6.57;;
74213;SDS011;62576;55.694;37.494;2023-04-25T03:42:13;15.95;;;6.35;;
74213;SDS011;62576;55.694;37.494;2023-04-25T03:44:43;14.10;;;6.57;;
74213;SDS011;62576;55.694;37.494;2023-04-25T03:47:13;18.88;;;5.85;;
74213;SDS011;62576;55.694;37.494;2023-04-25T03:49:43;14.75;;;6.30;;
74213;SDS011;62576;55.694;37.494;2023-04-25T03:52:13;18.30;;;7.88;;
74213;SDS011;62576;55.694;37.494;2023-04-25T03:54:45;15.10;;;7.70;;
74213;SDS011;62576;55.694;37.494;2023-04-25T03:57:15;14.25;;;7.30;;
74213;SDS011;62576;55.694;37.494;2023-04-25T03:59:45;14.25;;;7.82;;
74213;SDS011;62576;55.694;37.494;2023-04-25T04:02:15;21.92;;;8.93;;
74213;SDS011;62576;55.694;37.494;2023-04-25T04:04:45;18.08;;;8.75;;
74213;SDS011;62576;55.694;37.494;2023-04-25T04:07:15;19.05;;;9.45;;
74213;SDS011;62576;55.694;37.494;2023-04-25T04:09:47;22.17;;;9.80;;
74213;SDS011;62576;55.694;37.494;2023-04-25T04:12:17;22.27;;;9.75;;
74213;SDS011;62576;55.694;37.494;2023-04-25T04:14:47;19.00;;;9.27;;
74213;SDS011;62576;55.694;37.494;2023-04-25T04:17:17;21.25;;;9.82;;
74213;SDS011;62576;55.694;37.494;2023-04-25T04:19:48;18.02;;;9.93;;
74213;SDS011;62576;55.694;37.494;2023-04-25T04:22:18;17.75;;;9.80;;
74213;SDS011;62576;55.694;37.494;2023-04-25T04:24:50;21.75;;;9.60;;
74213;SDS011;62576;55.694;37.494;2023-04-25T04:27:21;19.45;;;10.13;;
74213;SDS011;62576;55.694;37.494;2023-04-25T04:29:51;24.05;;;10.13;;
74213;SDS011;62576;55.694;37.494;2023-04-25T04:32:21;20.35;;;9.70;;
74213;SDS011;62576;55.694;37.494;2023-04-25T04:34:48;20.73;;;9.82;;
74213;SDS011;62576;55.694;37.494;2023-04-25T04:37:18;20.20;;;9.52;;
74213;SDS011;62576;55.694;37.494;2023-04-25T04:39:50;19.55;;;9.45;;
74213;SDS011;62576;55.694;37.494;2023-04-25T04:42:21;18.07;;;9.70;;
74213;SDS011;62576;55.694;37.494;2023-04-25T04:44:53;16.00;;;9.68;;
74213;SDS011;62576;55.694;37.494;2023-04-25T04:47:23;17.90;;;9.45;;
74213;SDS011;62576;55.694;37.494;2023-04-25T04:49:53;15.60;;;8.95;;
74213;SDS011;62576;55.694;37.494;2023-04-25T04:52:23;18.42;;;9.32;;
74213;SDS011;62576;55.694;37.494;2023-04-25T04:57:28;19.98;;;9.80;;
74213;SDS011;62576;55.694;37.494;2023-04-25T04:59:58;20.17;;;10.70;;
74213;SDS011;62576;55.694;37.494;2023-04-25T05:02:28;24.33;;;11.38;;
74213;SDS011;62576;55.694;37.494;2023-04-25T05:04:58;22.58;;;11.05;;
74213;SDS011;62576;55.694;37.494;2023-04-25T05:07:29;17.17;;;10.20;;
74213;SDS011;62576;55.694;37.494;2023-04-25T05:10:00;23.85;;;11.40;;
74213;SDS011;62576;55.694;37.494;2023-04-25T05:12:30;20.17;;;11.70;;
74213;SDS011;62576;55.694;37.494;2023-04-25T05:15:00;17.98;;;10.07;;
74213;SDS011;62576;55.694;37.494;2023-04-25T05:17:30;25.70;;;10.68;;
74213;SDS011;62576;55.694;37.494;2023-04-25T05:20:00;19.30;;;9.15;;
74213;SDS011;62576;55.694;37.494;2023-04-25T05:22:31;17.17;;;9.82;;
74213;SDS011;62576;55.694;37.494;2023-04-25T05:25:02;20.60;;;9.60;;
74213;SDS011;62576;55.694;37.494;2023-04-25T05:27:33;18.23;;;9.25;;
74213;SDS011;62576;55.694;37.494;2023-04-25T05:30:06;19.33;;;9.20;;
74213;SDS011;62576;55.694;37.494;2023-04-25T05:32:37;19.60;;;8.75;;
74213;SDS011;62576;55.694;37.494;2023-04-25T05:35:05;24.55;;;8.43;;
74213;SDS011;62576;55.694;37.494;2023-04-25T05:37:36;20.40;;;8.48;;
74213;SDS011;62576;55.694;37.494;2023-04-25T05:40:08;19.77;;;8.05;;
74213;SDS011;62576;55.694;37.494;2023-04-25T05:42:39;18.35;;;8.35;;
74213;SDS011;62576;55.694;37.494;2023-04-25T05:45:09;14.88;;;6.95;;
74213;SDS011;62576;55.694;37.494;2023-04-25T05:47:38;14.13;;;6.75;;
74213;SDS011;62576;55.694;37.494;2023-04-25T05:50:09;15.02;;;6.95;;
74213;SDS011;62576;55.694;37.494;2023-04-25T05:52:39;15.60;;;6.85;;
74213;SDS011;62576;55.694;37.494;2023-04-25T05:55:11;15.73;;;7.53;;
74213;SDS011;62576;55.694;37.494;2023-04-25T05:57:41;17.75;;;7.80;;
74213;SDS011;62576;55.694;37.494;2023-04-25T06:00:13;16.33;;;7.10;;
74213;SDS011;62576;55.694;37.494;2023-04-25T06:02:44;12.50;;;6.25;;
74213;SDS011;62576;55.694;37.494;2023-04-25T06:05:14;12.95;;;6.90;;
74213;SDS011;62576;55.694;37.494;2023-04-25T06:07:44;13.10;;;6.53;;
74213;SDS011;62576;55.694;37.494;2023-04-25T06:10:15;11.52;;;7.15;;
74213;SDS011;62576;55.694;37.494;2023-04-25T06:12:46;18.98;;;7.15;;
74213;SDS011;62576;55.694;37.494;2023-04-25T06:17:49;16.20;;;6.68;;
74213;SDS011;62576;55.694;37.494;2023-04-25T06:20:19;14.25;;;6.13;;
74213;SDS011;62576;55.694;37.494;2023-04-25T06:22:51;10.60;;;5.32;;
74213;SDS011;62576;55.694;37.494;2023-04-25T06:25:22;10.50;;;5.90;;
74213;SDS011;62576;55.694;37.494;2023-04-25T06:27:59;14.75;;;5.53;;
74213;SDS011;62576;55.694;37.494;2023-04-25T06:30:30;12.85;;;5.75;;
74213;SDS011;62576;55.694;37.494;2023-04-25T06:33:00;13.02;;;5.32;;
74213;SDS011;62576;55.694;37.494;2023-04-25T06:35:27;11.68;;;4.93;;
74213;SDS011;62576;55.694;37.494;2023-04-25T06:37:57;9.50;;;5.13;;
74213;SDS011;62576;55.694;37.494;2023-04-25T06:40:28;11.82;;;5.63;;
74213;SDS011;62576;55.694;37.494;2023-04-25T06:42:58;13.57;;;5.20;;
74213;SDS011;62576;55.694;37.494;2023-04-25T06:45:28;9.63;;;4.65;;
74213;SDS011;62576;55.694;37.494;2023-04-25T06:47:58;10.88;;;5.00;;
74213;SDS011;62576;55.694;37.494;2023-04-25T06:50:29;14.55;;;5.57;;
74213;SDS011;62576;55.694;37.494;2023-04-25T06:52:59;11.73;;;6.00;;
74213;SDS011;62576;55.694;37.494;2023-04-25T06:55:31;13.48;;;6.35;;
74213;SDS011;62576;55.694;37.494;2023-04-25T06:58:06;9.68;;;5.25;;
74213;SDS011;62576;55.694;37.494;2023-04-25T07:00:36;12.52;;;5.03;;
74213;SDS011;62576;55.694;37.494;2023-04-25T07:03:07;11.90;;;5.43;;
74213;SDS011;62576;55.694;37.494;2023-04-25T07:05:37;12.68;;;5.80;;
74213;SDS011;62576;55.694;37.494;2023-04-25T07:08:07;9.27;;;5.45;;
74213;SDS011;62576;55.694;37.494;2023-04-25T07:10:39;14.30;;;6.18;;
74213;SDS011;62576;55.694;37.494;2023-04-25T07:13:09;11.25;;;5.60;;
74213;SDS011;62576;55.694;37.494;2023-04-25T07:15:39;12.40;;;5.60;;
74213;SDS011;62576;55.694;37.494;2023-04-25T07:18:10;10.70;;;5.30;;
74213;SDS011;62576;55.694;37.494;2023-04-25T07:20:40;11.68;;;5.10;;
74213;SDS011;62576;55.694;37.494;2023-04-25T07:23:10;13.65;;;5.13;;
74213;SDS011;62576;55.694;37.494;2023-04-25T07:25:41;9.43;;;5.30;;
74213;SDS011;62576;55.694;37.494;2023-04-25T07:28:11;12.93;;;5.28;;
74213;SDS011;62576;55.694;37.494;2023-04-25T07:30:41;12.20;;;5.28;;
74213;SDS011;62576;55.694;37.494;2023-04-25T07:33:12;14.50;;;5.80;;
74213;SDS011;62576;55.694;37.494;2023-04-25T07:35:39;10.43;;;5.53;;
74213;SDS011;62576;55.694;37.494;2023-04-25T07:38:09;14.82;;;6.18;;
74213;SDS011;62576;55.694;37.494;2023-04-25T07:40:39;13.05;;;5.95;;
74213;SDS011;62576;55.694;37.494;2023-04-25T07:43:11;14.18;;;6.70;;
74213;SDS011;62576;55.694;37.494;2023-04-25T07:45:44;18.73;;;8.20;;
74213;SDS011;62576;55.694;37.494;2023-04-25T07:48:16;17.17;;;7.32;;
74213;SDS011;62576;55.694;37.494;2023-04-25T07:50:47;15.45;;;7.00;;
74213;SDS011;62576;55.694;37.494;2023-04-25T07:53:17;17.05;;;7.95;;
74213;SDS011;62576;55.694;37.494;2023-04-25T07:55:47;21.08;;;7.30;;
74213;SDS011;62576;55.694;37.494;2023-04-25T07:58:19;13.65;;;7.82;;
74213;SDS011;62576;55.694;37.494;2023-04-25T08:03:19;16.08;;;6.38;;
74213;SDS011;62576;55.694;37.494;2023-04-25T08:05:49;15.13;;;6.50;;
74213;SDS011;62576;55.694;37.494;2023-04-25T08:08:28;13.77;;;5.28;;
74213;SDS011;62576;55.694;37.494;2023-04-25T08:10:59;17.75;;;6.03;;
74213;SDS011;62576;55.694;37.494;2023-04-25T08:13:30;12.52;;;5.68;;
74213;SDS011;62576;55.694;37.494;2023-04-25T08:16:00;15.27;;;5.60;;
74213;SDS011;62576;55.694;37.494;2023-04-25T08:18:30;11.52;;;4.80;;
74213;SDS011;62576;55.694;37.494;2023-04-25T08:21:00;7.93;;;4.72;;
74213;SDS011;62576;55.694;37.494;2023-04-25T08:23:30;8.93;;;5.03;;
74213;SDS011;62576;55.694;37.494;2023-04-25T08:26:00;18.63;;;4.82;;
74213;SDS011;62576;55.694;37.494;2023-04-25T08:33:34;11.07;;;4.88;;
74213;SDS011;62576;55.694;37.494;2023-04-25T08:36:04;19.85;;;5.47;;
74213;SDS011;62576;55.694;37.494;2023-04-25T08:38:35;9.40;;;4.55;;
74213;SDS011;62576;55.694;37.494;2023-04-25T08:41:02;15.25;;;4.60;;
74213;SDS011;62576;55.694;37.494;2023-04-25T08:43:36;10.98;;;4.78;;
74213;SDS011;62576;55.694;37.494;2023-04-25T08:46:07;14.20;;;4.93;;
74213;SDS011;62576;55.694;37.494;2023-04-25T08:48:38;10.82;;;4.78;;
74213;SDS011;62576;55.694;37.494;2023-04-25T08:51:10;10.32;;;5.00;;
74213;SDS011;62576;55.694;37.494;2023-04-25T08:53:45;11.18;;;4.50;;
74213;SDS011;62576;55.694;37.494;2023-04-25T08:56:18;7.53;;;4.32;;
74213;SDS011;62576;55.694;37.494;2023-04-25T08:58:53;12.93;;;4.50;;
74213;SDS011;62576;55.694;37.494;2023-04-25T09:01:26;9.32;;;4.53;;
74213;SDS011;62576;55.694;37.494;2023-04-25T09:03:59;10.45;;;4.45;;
74213;SDS011;62576;55.694;37.494;2023-04-25T09:06:30;10.63;;;4.85;;
74213;SDS011;62576;55.694;37.494;2023-04-25T09:09:01;8.70;;;4.60;;
74213;SDS011;62576;55.694;37.494;2023-04-25T09:11:33;9.05;;;5.15;;
74213;SDS011;62576;55.694;37.494;2023-04-25T09:14:12;13.57;;;5.38;;
74213;SDS011;62576;55.694;37.494;2023-04-25T09:16:57;11.77;;;5.10;;
74213;SDS011;62576;55.694;37.494;2023-04-25T09:19:30;15.07;;;4.88;;
74213;SDS011;62576;55.694;37.494;2023-04-25T09:22:03;13.10;;;4.90;;
74213;SDS011;62576;55.694;37.494;2023-04-25T09:24:35;10.98;;;4.85;;
74213;SDS011;62576;55.694;37.494;2023-04-25T09:27:06;10.60;;;4.50;;
74213;SDS011;62576;55.694;37.494;2023-04-25T09:29:39;11.80;;;4.40;;
74213;SDS011;62576;55.694;37.494;2023-04-25T09:32:11;12.30;;;4.38;;
74213;SDS011;62576;55.694;37.494;2023-04-25T09:34:42;12.65;;;5.28;;
74213;SDS011;62576;55.694;37.494;2023-04-25T09:37:16;11.13;;;4.70;;
74213;SDS011;62576;55.694;37.494;2023-04-25T09:39:48;12.25;;;4.57;;
74213;SDS011;62576;55.694;37.494;2023-04-25T09:42:21;15.00;;;4.85;;
74213;SDS011;62576;55.694;37.494;2023-04-25T09:44:55;10.02;;;4.15;;
74213;SDS011;62576;55.694;37.494;2023-04-25T09:47:25;7.85;;;4.03;;
74213;SDS011;62576;55.694;37.494;2023-04-25T09:49:56;7.95;;;3.53;;
74213;SDS011;62576;55.694;37.494;2023-04-25T09:52:26;10.38;;;3.80;;
74213;SDS011;62576;55.694;37.494;2023-04-25T09:54:56;10.23;;;5.00;;
74213;SDS011;62576;55.694;37.494;2023-04-25T09:57:27;10.90;;;4.85;;
74213;SDS011;62576;55.694;37.494;2023-04-25T09:59:58;15.23;;;4.28;;
74213;SDS011;62576;55.694;37.494;2023-04-25T10:02:33;8.93;;;4.35;;
74213;SDS011;62576;55.694;37.494;2023-04-25T10:05:05;6.22;;;3.38;;
74213;SDS011;62576;55.694;37.494;2023-04-25T10:07:37;8.93;;;3.90;;
74213;SDS011;62576;55.694;37.494;2023-04-25T10:10:08;9.90;;;3.85;;
74213;SDS011;62576;55.694;37.494;2023-04-25T10:12:42;10.38;;;3.90;;
74213;SDS011;62576;55.694;37.494;2023-04-25T10:15:15;11.93;;;3.97;;
74213;SDS011;62576;55.694;37.494;2023-04-25T10:17:45;8.68;;;4.43;;
74213;SDS011;62576;55.694;37.494;2023-04-25T10:20:17;6.75;;;4.32;;
74213;SDS011;62576;55.694;37.494;2023-04-25T10:22:50;10.40;;;4.35;;
74213;SDS011;62576;55.694;37.494;2023-04-25T10:25:26;8.75;;;4.25;;
74213;SDS011;62576;55.694;37.494;2023-04-25T10:27:56;12.20;;;4.70;;
74213;SDS011;62576;55.694;37.494;2023-04-25T10:30:30;7.40;;;4.10;;
74213;SDS011;62576;55.694;37.494;2023-04-25T10:33:00;9.60;;;4.78;;
74213;SDS011;62576;55.694;37.494;2023-04-25T10:35:27;9.20;;;4.10;;
74213;SDS011;62576;55.694;37.494;2023-04-25T10:38:02;9.77;;;4.55;;
74213;SDS011;62576;55.694;37.494;2023-04-25T10:40:33;7.28;;;4.20;;
74213;SDS011;62576;55.694;37.494;2023-04-25T10:48:53;8.00;;;4.20;;
74213;SDS011;62576;55.694;37.494;2023-04-25T10:51:25;10.13;;;3.72;;
74213;SDS011;62576;55.694;37.494;2023-04-25T10:53:56;6.10;;;3.70;;
74213;SDS011;62576;55.694;37.494;2023-04-25T10:59:04;5.47;;;3.75;;
74213;SDS011;62576;55.694;37.494;2023-04-25T11:01:40;9.82;;;4.80;;
74213;SDS011;62576;55.694;37.494;2023-04-25T11:04:21;14.30;;;4.75;;
74213;SDS011;62576;55.694;37.494;2023-04-25T11:06:59;6.05;;;3.88;;
74213;SDS011;62576;55.694;37.494;2023-04-25T11:09:35;7.80;;;3.80;;
74213;SDS011;62576;55.694;37.494;2023-04-25T11:12:08;11.32;;;4.10;;
74213;SDS011;62576;55.694;37.494;2023-04-25T11:14:40;8.45;;;4.20;;
74213;SDS011;62576;55.694;37.494;2023-04-25T11:17:12;7.53;;;3.40;;
74213;SDS011;62576;55.694;37.494;2023-04-25T11:19:43;12.45;;;3.50;;
74213;SDS011;62576;55.694;37.494;2023-04-25T11:22:12;6.78;;;3.90;;
74213;SDS011;62576;55.694;37.494;2023-04-25T11:24:43;8.27;;;3.80;;
74213;SDS011;62576;55.694;37.494;2023-04-25T11:27:15;7.82;;;3.95;;
74213;SDS011;62576;55.694;37.494;2023-04-25T11:29:45;7.05;;;4.00;;
74213;SDS011;62576;55.694;37.494;2023-04-25T11:32:18;7.13;;;3.83;;
74213;SDS011;62576;55.694;37.494;2023-04-25T11:34:50;11.00;;;3.70;;
74213;SDS011;62576;55.694;37.494;2023-04-25T11:39:51;6.60;;;3.13;;
74213;SDS011;62576;55.694;37.494;2023-04-25T11:42:22;7.53;;;3.13;;
74213;SDS011;62576;55.694;37.494;2023-04-25T11:44:52;6.93;;;2.67;;
74213;SDS011;62576;55.694;37.494;2023-04-25T11:47:28;6.15;;;2.80;;
74213;SDS011;62576;55.694;37.494;2023-04-25T11:49:59;6.00;;;2.70;;
74213;SDS011;62576;55.694;37.494;2023-04-25T11:55:18;6.50;;;3.70;;
74213;SDS011;62576;55.694;37.494;2023-04-25T11:57:50;8.13;;;3.13;;
74213;SDS011;62576;55.694;37.494;2023-04-25T12:00:20;7.95;;;3.40;;
74213;SDS011;62576;55.694;37.494;2023-04-25T12:02:53;7.78;;;3.10;;
74213;SDS011;62576;55.694;37.494;2023-04-25T12:05:26;5.18;;;2.80;;
74213;SDS011;62576;55.694;37.494;2023-04-25T12:08:10;10.18;;;3.03;;
74213;SDS011;62576;55.694;37.494;2023-04-25T12:10:41;10.43;;;2.92;;
74213;SDS011;62576;55.694;37.494;2023-04-25T12:13:20;7.88;;;2.95;;
74213;SDS011;62576;55.694;37.494;2023-04-25T12:15:50;8.45;;;2.80;;
74213;SDS011;62576;55.694;37.494;2023-04-25T12:18:24;8.10;;;2.67;;
74213;SDS011;62576;55.694;37.494;2023-04-25T12:20:55;6.55;;;2.78;;
74213;SDS011;62576;55.694;37.494;2023-04-25T12:23:27;7.05;;;2.90;;
74213;SDS011;62576;55.694;37.494;2023-04-25T12:25:58;7.70;;;2.63;;
74213;SDS011;62576;55.694;37.494;2023-04-25T12:28:31;5.60;;;2.83;;
74213;SDS011;62576;55.694;37.494;2023-04-25T12:31:03;6.88;;;2.80;;
74213;SDS011;62576;55.694;37.494;2023-04-25T12:33:38;7.47;;;2.85;;
74213;SDS011;62576;55.694;37.494;2023-04-25T12:36:16;6.80;;;3.67;;
74213;SDS011;62576;55.694;37.494;2023-04-25T12:38:45;8.73;;;3.42;;
74213;SDS011;62576;55.694;37.494;2023-04-25T12:41:16;5.35;;;3.13;;
74213;SDS011;62576;55.694;37.494;2023-04-25T12:43:47;6.63;;;2.88;;
74213;SDS011;62576;55.694;37.494;2023-04-25T12:46:17;8.43;;;3.00;;
74213;SDS011;62576;55.694;37.494;2023-04-25T12:48:48;5.78;;;3.10;;
74213;SDS011;62576;55.694;37.494;2023-04-25T12:51:19;7.50;;;3.13;;
74213;SDS011;62576;55.694;37.494;2023-04-25T12:53:49;6.78;;;2.90;;
74213;SDS011;62576;55.694;37.494;2023-04-25T12:56:19;5.38;;;3.13;;
74213;SDS011;62576;55.694;37.494;2023-04-25T12:58:49;5.90;;;2.95;;
74213;SDS011;62576;55.694;37.494;2023-04-25T13:01:19;8.02;;;2.95;;
74213;SDS011;62576;55.694;37.494;2023-04-25T13:03:51;6.13;;;2.75;;
74213;SDS011;62576;55.694;37.494;2023-04-25T13:06:21;9.52;;;3.40;;
74213;SDS011;62576;55.694;37.494;2023-04-25T13:08:51;6.25;;;3.17;;
74213;SDS011;62576;55.694;37.494;2023-04-25T13:11:22;9.93;;;3.00;;
74213;SDS011;62576;55.694;37.494;2023-04-25T13:13:52;4.95;;;2.92;;
74213;SDS011;62576;55.694;37.494;2023-04-25T13:16:22;7.82;;;3.90;;
74213;SDS011;62576;55.694;37.494;2023-04-25T13:18:53;7.97;;;4.10;;
74213;SDS011;62576;55.694;37.494;2023-04-25T13:21:24;9.05;;;3.90;;
74213;SDS011;62576;55.694;37.494;2023-04-25T13:23:54;8.73;;;4.00;;
74213;SDS011;62576;55.694;37.494;2023-04-25T13:26:24;12.40;;;4.57;;
74213;SDS011;62576;55.694;37.494;2023-04-25T13:28:55;10.27;;;3.47;;
74213;SDS011;62576;55.694;37.494;2023-04-25T13:31:25;12.43;;;3.28;;
74213;SDS011;62576;55.694;37.494;2023-04-25T13:33:56;9.02;;;3.50;;
74213;SDS011;62576;55.694;37.494;2023-04-25T13:36:26;5.30;;;3.40;;
74213;SDS011;62576;55.694;37.494;2023-04-25T13:38:57;8.82;;;3.35;;
74213;SDS011;62576;55.694;37.494;2023-04-25T13:41:27;7.63;;;3.58;;
74213;SDS011;62576;55.694;37.494;2023-04-25T13:43:57;7.57;;;3.30;;
74213;SDS011;62576;55.694;37.494;2023-04-25T13:46:27;7.75;;;3.83;;
74213;SDS011;62576;55.694;37.494;2023-04-25T13:48:59;11.10;;;3.80;;
74213;SDS011;62576;55.694;37.494;2023-04-25T13:51:29;9.32;;;4.40;;
74213;SDS011;62576;55.694;37.494;2023-04-25T13:54:00;6.85;;;4.20;;
74213;SDS011;62576;55.694;37.494;2023-04-25T13:56:31;8.30;;;3.40;;
74213;SDS011;62576;55.694;37.494;2023-04-25T13:59:00;10.27;;;4.30;;
74213;SDS011;62576;55.694;37.494;2023-04-25T14:01:30;9.75;;;3.80;;
74213;SDS011;62576;55.694;37.494;2023-04-25T14:04:03;9.82;;;4.00;;
74213;SDS011;62576;55.694;37.494;2023-04-25T14:06:33;10.60;;;3.47;;
74213;SDS011;62576;55.694;37.494;2023-04-25T14:09:04;9.40;;;3.53;;
74213;SDS011;62576;55.694;37.494;2023-04-25T14:11:35;8.13;;;4.30;;
74213;SDS011;62576;55.694;37.494;2023-04-25T14:14:05;9.40;;;3.55;;
74213;SDS011;62576;55.694;37.494;2023-04-25T14:16:35;7.00;;;3.67;;
74213;SDS011;62576;55.694;37.494;2023-04-25T14:19:07;9.45;;;3.50;;
74213;SDS011;62576;55.694;37.494;2023-04-25T14:21:37;10.77;;;5.20;;
74213;SDS011;62576;55.694;37.494;2023-04-25T14:24:04;9.75;;;4.15;;
74213;SDS011;62576;55.694;37.494;2023-04-25T14:26:35;6.75;;;3.15;;
74213;SDS011;62576;55.694;37.494;2023-04-25T14:29:06;7.50;;;3.70;;
74213;SDS011;62576;55.694;37.494;2023-04-25T14:31:36;7.63;;;3.33;;
74213;SDS011;62576;55.694;37.494;2023-04-25T14:34:09;8.65;;;3.40;;
74213;SDS011;62576;55.694;37.494;2023-04-25T14:36:39;7.88;;;3.22;;
74213;SDS011;62576;55.694;37.494;2023-04-25T14:39:09;8.07;;;3.20;;
74213;SDS011;62576;55.694;37.494;2023-04-25T14:41:40;7.05;;;3.40;;
74213;SDS011;62576;55.694;37.494;2023-04-25T14:44:10;8.45;;;3.13;;
74213;SDS011;62576;55.694;37.494;2023-04-25T14:46:40;11.32;;;3.70;;
74213;SDS011;62576;55.694;37.494;2023-04-25T14:49:11;12.38;;;3.50;;
74213;SDS011;62576;55.694;37.494;2023-04-25T14:51:44;11.07;;;3.47;;
74213;SDS011;62576;55.694;37.494;2023-04-25T14:54:15;16.77;;;3.90;;
74213;SDS011;62576;55.694;37.494;2023-04-25T14:56:45;8.25;;;3.33;;
74213;SDS011;62576;55.694;37.494;2023-04-25T14:59:15;7.32;;;3.35;;
74213;SDS011;62576;55.694;37.494;2023-04-25T15:01:45;5.03;;;3.35;;
74213;SDS011;62576;55.694;37.494;2023-04-25T15:04:17;13.68;;;4.13;;
74213;SDS011;62576;55.694;37.494;2023-04-25T15:06:47;6.05;;;3.15;;
74213;SDS011;62576;55.694;37.494;2023-04-25T15:09:17;7.97;;;3.22;;
74213;SDS011;62576;55.694;37.494;2023-04-25T15:11:47;12.95;;;3.60;;
74213;SDS011;62576;55.694;37.494;2023-04-25T15:14:17;6.53;;;3.47;;
74213;SDS011;62576;55.694;37.494;2023-04-25T15:16:48;10.18;;;3.60;;